Flight Track Log - Related Links

Times and Time Zones

All times are in EDT time to prevent confusion due to time zone crossing. See the EJA588P flight status page for this flight to view local times or setup timezone preferences in your user account.

Time Position Orientation Groundspeed Altitude Reporting Facility
EDT Latitude Longitude Course Direction KTS MPH feet Rate Location/Type
Sat 04:56:04 PM 45.3672 -91.8722 236° Southwest 174 200 6,100  Level Minneapolis Center
Sat 04:57:06 PM 45.3575 -91.9519 260° West 187 215 6,100 -48 Level Minneapolis Center
Sat 04:58:08 PM 45.3453 -92.0464 260° West 235 270 6,000 -48 Descending Minneapolis Center
Sat 04:59:10 PM 45.3317 -92.1481 259° West 261 300 6,000  Level Minneapolis Center
Sat 05:00:12 PM 45.3133 -92.2717 258° West 266 306 6,000  Level Minneapolis Center
Sat 05:01:00 PM 45.1862 -92.2385 236° Southwest  Level FlightAware Approximate
Sat 05:01:14 PM 45.2825 -92.3647 245° Southwest 262 302 6,000  Level Minneapolis Center
Sat 05:02:16 PM 45.2458 -92.4517 239° Southwest 257 296 6,000  Level Minneapolis Center
Sat 05:03:18 PM 45.2100 -92.5369 239° Southwest 253 291 6,000  Level Minneapolis Center
Sat 05:04:20 PM 45.1756 -92.6219 240° Southwest 250 288 6,000  Level Minneapolis Center
Sat 05:05:22 PM 45.1403 -92.7069 240° Southwest 250 288 6,000  Level Minneapolis Center
Sat 05:06:24 PM 45.0989 -92.8083 240° Southwest 249 287 6,000  Level Minneapolis Center
Sat 05:07:26 PM 45.0700 -92.8783 240° Southwest 207 238 6,000 -194 Level Minneapolis Center
Sat 05:08:28 PM 45.0453 -92.9375 239° Southwest 216 249 5,600 -823 Descending Minneapolis Center
Sat 05:09:30 PM 45.0031 -93.0397 240° Southwest 251 289 4,300 -774 Descending Minneapolis Center
Sat 05:10:32 PM 44.9697 -93.1200 240° Southwest 241 277 4,000 -145 Descending Minneapolis Center
Sat 05:11:34 PM 44.9331 -93.2069 239° Southwest 215 247 4,000 -176 Level Minneapolis Center
Sat 05:12:48 PM 44.9017 -93.2814 239° Southwest 224 258 3,600 -438 Descending Minneapolis Center
Sat 05:13:51 PM 44.8692 -93.3603 240° Southwest 195 224 3,000 -528 Descending Minneapolis Center
Sat 05:14:53 PM 44.8583 -93.4269 257° West 183 211 2,500 -242 Descending Minneapolis Center
Sat 05:15:55 PM 44.8717 -93.5150 282° West 194 223 2,500 -242 Level Minneapolis Center
Sat 05:16:57 PM 44.8433 -93.5428 215° Southwest 127 146 2,000 -485 Descending Minneapolis Center
Sat 05:18:11 PM 44.8333 -93.4997 108° East 120 138 1,400 -486 Descending Minneapolis Center

Login

Don't have an account? Register now (free) for customized features, flight alerts, and more!